EDLN

Mönchengladbach Airport

Mönchengladbach, Germany
METAR EDLN 221750Z VRB09KT CAVOK 25/11 Q1009
Observed Flight Rules
Apr-22 @ 17:50 UTC (4 hours ago) Visual Flight Rules
Wind Visibility Clouds
Variable at 9 knots 10,000+ meters
  • Clear skies
Temperatures Readings
Current 25°C / 77°F
Dewpoint 11°C / 52°F
Humidity 42%
Altimeter 29.79" Hg
Pressure 1009 hPa
Elevation 38
METAR EDLN 221750Z VRB09KT CAVOK 25/11 Q1009
Observed Flight Rules
Apr-22 @ 17:50 UTC
(4 hours ago)
VFR
Wind Visibility
Variable at 9 knots 10,000+ meters
Clouds
  • Clear skies
Temperature Dewpoint
25°C / 77°F 11°C / 52°F
Humidity Altimeter Pressure
42% 29.79" Hg 1009 hPa